Time;durP1;ratioP1;P1;durP2;ratioP2;P2;SDS_P1;SDS_P2;PMS_P1;PMS_P2;Temp;Humidity;BMP_temperature;BMP_pressure;BME280_temperature;BME280_humidity;BME280_pressure;Samples;Min_cycle;Max_cycle;Signal;HPM_P1;HPM_P2
2022/11/07 00:00:14;;;;;;;13.97;12.07;;;7.90;99.90;;;;;;5026194;28;20631;-63
2022/11/07 00:02:39;;;;;;;15.57;11.23;;;7.90;99.90;;;;;;5025376;28;20202;-65
2022/11/07 00:05:05;;;;;;;12.60;10.50;;;7.90;99.90;;;;;;5022803;28;20749;-63
2022/11/07 00:07:31;;;;;;;15.30;12.13;;;8.00;99.90;;;;;;5027469;28;20207;-63
2022/11/07 00:09:56;;;;;;;13.70;10.23;;;8.00;99.90;;;;;;5024756;28;20211;-65
2022/11/07 00:12:22;;;;;;;12.50;10.20;;;8.00;99.90;;;;;;5024297;28;20661;-63
2022/11/07 00:14:47;;;;;;;12.73;10.83;;;8.10;99.90;;;;;;5024780;28;20281;-66
2022/11/07 00:17:13;;;;;;;14.70;10.83;;;8.00;99.90;;;;;;5024220;28;20203;-64
2022/11/07 00:19:38;;;;;;;14.60;11.23;;;8.10;99.90;;;;;;5026418;28;20222;-65
2022/11/07 00:22:04;;;;;;;12.87;11.00;;;8.10;99.90;;;;;;5026403;28;20194;-61
2022/11/07 00:24:29;;;;;;;17.17;12.77;;;8.10;99.90;;;;;;5026407;28;20198;-63
2022/11/07 00:26:55;;;;;;;14.20;11.63;;;8.10;99.90;;;;;;5024600;28;20200;-62
2022/11/07 00:29:20;;;;;;;15.17;11.47;;;8.10;99.90;;;;;;5026372;28;21252;-62
2022/11/07 00:31:47;;;;;;;12.20;9.97;;;8.10;99.90;;;;;;5024309;28;20209;-62
2022/11/07 00:34:13;;;;;;;13.13;10.90;;;8.10;99.90;;;;;;5025246;28;20439;-63
2022/11/07 00:36:38;;;;;;;12.33;10.70;;;8.00;99.90;;;;;;5024902;28;20246;-63
2022/11/07 00:39:05;;;;;;;13.93;10.30;;;8.00;99.90;;;;;;5025608;28;20218;-65
2022/11/07 00:41:30;;;;;;;14.43;11.60;;;8.00;99.90;;;;;;5030736;28;20819;-65
2022/11/07 00:43:56;;;;;;;16.57;11.87;;;8.00;99.90;;;;;;5025589;28;20318;-63
2022/11/07 00:46:22;;;;;;;12.57;10.50;;;8.00;99.90;;;;;;5026424;28;20689;-63
2022/11/07 00:48:48;;;;;;;15.57;10.23;;;8.00;99.90;;;;;;5023873;28;20959;-63
2022/11/07 00:51:17;;;;;;;14.23;11.07;;;8.00;99.90;;;;;;5025926;28;20401;-63
2022/11/07 00:53:43;;;;;;;10.50;9.37;;;8.00;99.90;;;;;;5022143;28;20212;-65
2022/11/07 00:56:10;;;;;;;12.00;9.97;;;8.00;99.90;;;;;;5026450;28;20231;-63
2022/11/07 00:58:36;;;;;;;14.60;10.07;;;8.10;99.90;;;;;;5026533;28;20223;-63
2022/11/07 01:01:10;;;;;;;16.73;10.37;;;8.10;99.90;;;;;;5026203;28;20550;-65
2022/11/07 01:06:21;;;;;;;11.83;9.77;;;8.10;99.90;;;;;;5025610;28;20606;-66
2022/11/07 01:08:46;;;;;;;11.53;9.63;;;8.10;99.90;;;;;;5024187;28;20206;-63
2022/11/07 01:11:11;;;;;;;13.70;9.90;;;8.10;99.90;;;;;;5024196;28;20290;-64
2022/11/07 01:13:37;;;;;;;13.87;9.77;;;8.10;99.90;;;;;;5025986;28;20250;-64
2022/11/07 01:16:03;;;;;;;14.00;10.37;;;8.10;99.90;;;;;;5025689;28;20200;-69
2022/11/07 01:18:28;;;;;;;12.23;9.83;;;8.20;99.90;;;;;;5028695;28;20219;-67
2022/11/07 01:20:54;;;;;;;11.37;9.77;;;8.40;99.90;;;;;;5022872;28;20210;-66
2022/11/07 01:23:21;;;;;;;11.87;9.67;;;8.50;99.90;;;;;;5026587;28;20194;-66
2022/11/07 01:25:47;;;;;;;11.07;9.03;;;8.60;99.90;;;;;;5028822;28;20261;-67
2022/11/07 01:28:12;;;;;;;11.53;9.40;;;8.70;99.90;;;;;;5029834;28;20208;-66
2022/11/07 01:30:40;;;;;;;11.93;9.33;;;8.70;99.90;;;;;;5028877;28;20239;-69
2022/11/07 01:33:05;;;;;;;10.70;8.77;;;8.70;99.90;;;;;;5028521;28;20204;-66
2022/11/07 01:35:32;;;;;;;10.97;9.50;;;8.60;99.90;;;;;;5028553;28;20258;-66
2022/11/07 01:37:58;;;;;;;12.03;9.90;;;8.60;99.90;;;;;;5029316;28;20224;-67
2022/11/07 01:40:23;;;;;;;8.80;7.90;;;8.50;99.90;;;;;;5029026;28;20195;-65
2022/11/07 01:42:49;;;;;;;12.00;9.90;;;8.50;99.90;;;;;;5026635;28;20296;-66
2022/11/07 01:45:23;;;;;;;13.57;10.03;;;8.40;99.90;;;;;;5027855;28;20195;-66
2022/11/07 01:47:50;;;;;;;10.40;8.27;;;8.40;99.90;;;;;;5028933;28;20245;-66
2022/11/07 01:50:16;;;;;;;10.73;9.63;;;8.30;99.90;;;;;;5029019;28;20265;-67
2022/11/07 01:52:44;;;;;;;11.17;9.67;;;8.30;99.90;;;;;;5029128;28;20661;-64
2022/11/07 01:55:13;;;;;;;11.70;9.67;;;8.30;99.90;;;;;;5032245;28;20253;-64
2022/11/07 01:57:48;;;;;;;10.17;8.00;;;8.30;99.90;;;;;;5028183;28;20689;-64
2022/11/07 02:00:18;;;;;;;10.00;8.90;;;8.40;99.90;;;;;;5027425;28;20195;-64
2022/11/07 02:02:45;;;;;;;9.97;8.63;;;8.40;99.90;;;;;;5028818;28;20204;-66
2022/11/07 02:05:18;;;;;;;9.70;8.80;;;8.40;99.90;;;;;;5028893;28;20984;-66
2022/11/07 02:07:44;;;;;;;11.63;8.93;;;8.40;99.90;;;;;;5028104;28;20198;-66
2022/11/07 02:10:10;;;;;;;10.87;8.50;;;8.40;99.90;;;;;;5025843;28;20277;-66
2022/11/07 02:12:36;;;;;;;11.10;8.70;;;8.40;99.90;;;;;;5028782;28;20214;-65
2022/11/07 02:15:02;;;;;;;9.33;7.90;;;8.50;99.90;;;;;;5027032;28;20234;-76
2022/11/07 02:17:28;;;;;;;10.23;9.13;;;8.50;99.90;;;;;;5026358;28;20203;-76
2022/11/07 02:19:55;;;;;;;9.83;7.83;;;8.50;99.90;;;;;;5027147;28;20226;-76
2022/11/07 02:22:56;;;;;;;9.37;7.90;;;8.50;99.90;;;;;;5027328;28;20195;-76
2022/11/07 02:25:22;;;;;;;9.57;8.57;;;8.50;99.90;;;;;;5027865;28;20268;-76
2022/11/07 02:27:52;;;;;;;11.47;8.67;;;8.50;99.90;;;;;;5025970;28;20206;-78
2022/11/07 02:30:22;;;;;;;11.20;8.47;;;8.50;99.90;;;;;;5026627;28;20738;-78
2022/11/07 02:32:48;;;;;;;9.70;7.97;;;8.50;99.90;;;;;;5027538;28;20246;-70
2022/11/07 02:35:35;;;;;;;11.10;8.40;;;8.50;99.90;;;;;;5029902;28;20210;-70
2022/11/07 02:38:05;;;;;;;8.90;7.53;;;8.60;99.90;;;;;;5026319;28;20275;-69
2022/11/07 02:40:31;;;;;;;12.47;8.33;;;8.60;99.90;;;;;;5031429;28;20246;-69
2022/11/07 02:42:58;;;;;;;9.07;7.60;;;8.60;99.90;;;;;;5030274;28;20617;-68
2022/11/07 02:45:29;;;;;;;9.27;8.20;;;8.60;99.90;;;;;;5028814;28;20220;-68
2022/11/07 02:47:55;;;;;;;9.23;7.80;;;8.50;99.90;;;;;;5026257;28;20609;-69
2022/11/07 02:50:21;;;;;;;9.27;8.37;;;8.50;99.90;;;;;;5027654;28;20227;-73
2022/11/07 02:52:46;;;;;;;8.87;7.97;;;8.60;99.90;;;;;;5029321;28;20811;-68
2022/11/07 02:55:13;;;;;;;9.47;7.87;;;8.60;99.90;;;;;;5028588;28;20219;-68
2022/11/07 02:57:39;;;;;;;9.77;7.80;;;8.60;99.90;;;;;;5028151;28;20256;-65
2022/11/07 03:00:07;;;;;;;10.97;7.97;;;8.60;99.90;;;;;;5025384;28;20211;-68
2022/11/07 03:02:33;;;;;;;9.13;7.57;;;8.60;99.90;;;;;;5025628;28;20224;-71
2022/11/07 03:04:58;;;;;;;8.07;7.27;;;8.70;99.90;;;;;;5027495;28;20280;-73
2022/11/07 03:07:24;;;;;;;9.63;8.03;;;8.70;99.90;;;;;;5031691;28;20997;-69
2022/11/07 03:09:49;;;;;;;9.57;6.83;;;8.70;99.90;;;;;;5030304;28;20384;-69
2022/11/07 03:12:15;;;;;;;8.73;7.77;;;8.70;99.90;;;;;;5021865;28;20992;-70
2022/11/07 03:14:41;;;;;;;9.63;7.93;;;8.80;99.90;;;;;;5027349;28;20209;-71
2022/11/07 03:17:06;;;;;;;10.13;8.00;;;8.80;99.90;;;;;;5028615;28;20747;-71
2022/11/07 03:19:32;;;;;;;8.67;7.50;;;8.80;99.90;;;;;;5029345;28;20220;-71
2022/11/07 03:21:57;;;;;;;8.87;7.77;;;8.80;99.90;;;;;;5027861;28;20219;-71
2022/11/07 03:24:22;;;;;;;9.20;8.23;;;8.80;99.90;;;;;;5025856;28;20287;-70
2022/11/07 03:26:48;;;;;;;8.43;7.63;;;8.80;99.90;;;;;;5028389;28;20195;-70
2022/11/07 03:29:13;;;;;;;7.70;7.00;;;8.80;99.90;;;;;;5036431;28;20207;-71
2022/11/07 03:31:39;;;;;;;8.97;7.23;;;8.90;99.90;;;;;;5034363;28;20207;-71
2022/11/07 03:34:04;;;;;;;7.80;7.00;;;8.90;99.90;;;;;;5032369;28;20249;-72
2022/11/07 03:36:30;;;;;;;8.33;7.53;;;8.90;99.90;;;;;;5037922;28;20631;-71
2022/11/07 03:38:55;;;;;;;8.03;7.23;;;8.90;99.90;;;;;;5034044;28;20482;-70
2022/11/07 03:41:21;;;;;;;8.60;7.53;;;8.90;99.90;;;;;;5037563;28;20281;-70
2022/11/07 03:43:46;;;;;;;11.33;7.63;;;8.90;99.90;;;;;;5037626;28;20199;-71
2022/11/07 03:46:13;;;;;;;8.07;7.27;;;8.90;99.90;;;;;;5036871;28;20203;-71
2022/11/07 03:48:39;;;;;;;8.53;7.20;;;8.90;99.90;;;;;;5037045;28;20202;-71
2022/11/07 03:51:07;;;;;;;8.47;7.10;;;8.90;99.90;;;;;;5036952;28;20557;-71
2022/11/07 03:53:33;;;;;;;9.60;6.77;;;8.90;99.90;;;;;;5037126;28;20260;-69
2022/11/07 03:55:58;;;;;;;8.73;7.73;;;8.90;99.90;;;;;;5036911;28;20222;-69
2022/11/07 03:58:25;;;;;;;7.03;6.33;;;8.90;99.90;;;;;;5037090;28;20321;-68
2022/11/07 04:00:50;;;;;;;7.33;6.50;;;9.00;99.90;;;;;;5037182;28;20712;-69
2022/11/07 04:03:16;;;;;;;8.50;7.70;;;9.00;99.90;;;;;;5036441;28;20738;-69
2022/11/07 04:05:42;;;;;;;8.37;7.23;;;9.00;99.90;;;;;;5036737;28;20252;-70
2022/11/07 04:08:07;;;;;;;8.80;7.30;;;9.00;99.90;;;;;;5036795;28;20209;-70
2022/11/07 04:10:33;;;;;;;8.40;7.50;;;9.00;99.90;;;;;;5036655;28;20568;-71
2022/11/07 04:18:45;;;;;;;8.07;6.77;;;9.00;99.90;;;;;;5033890;28;20691;-72
2022/11/07 04:21:11;;;;;;;9.40;6.90;;;9.00;99.90;;;;;;5028243;28;20213;-71
2022/11/07 04:23:36;;;;;;;7.17;6.50;;;9.00;99.90;;;;;;5036080;28;20227;-70
2022/11/07 04:28:46;;;;;;;8.17;6.67;;;9.00;99.90;;;;;;5036394;28;20358;-71
2022/11/07 04:31:12;;;;;;;8.87;6.83;;;9.00;99.90;;;;;;5034397;28;20294;-73
2022/11/07 04:33:37;;;;;;;7.70;6.90;;;9.10;99.90;;;;;;5036473;28;20282;-71
2022/11/07 04:36:03;;;;;;;7.57;6.83;;;9.10;99.90;;;;;;5034688;28;20218;-72
2022/11/07 04:38:28;;;;;;;7.47;6.73;;;9.10;99.90;;;;;;5036210;28;20532;-71
2022/11/07 04:40:55;;;;;;;7.63;6.93;;;9.10;99.90;;;;;;5036160;28;20196;-71
2022/11/07 04:43:22;;;;;;;9.17;6.10;;;9.10;99.90;;;;;;5036451;28;20508;-71
2022/11/07 04:45:48;;;;;;;9.10;6.80;;;9.10;99.90;;;;;;5034278;28;20581;-71
2022/11/07 04:48:13;;;;;;;7.23;6.13;;;9.10;99.90;;;;;;5036040;28;20202;-72
2022/11/07 04:50:39;;;;;;;8.73;7.40;;;9.10;99.90;;;;;;5036456;28;20203;-71
2022/11/07 04:53:05;;;;;;;8.17;7.37;;;9.10;99.90;;;;;;5035805;28;20584;-71
2022/11/07 04:55:30;;;;;;;8.30;6.20;;;9.10;99.90;;;;;;5036398;28;20214;-71
2022/11/07 04:57:56;;;;;;;6.77;6.03;;;9.10;99.90;;;;;;5036769;28;20218;-72
2022/11/07 05:00:22;;;;;;;7.10;6.40;;;9.10;99.90;;;;;;5033820;28;20285;-70
2022/11/07 05:02:49;;;;;;;8.47;6.73;;;9.10;99.90;;;;;;5039723;28;20265;-71
2022/11/07 05:05:15;;;;;;;6.60;5.97;;;9.10;99.90;;;;;;5039900;28;20256;-70
2022/11/07 05:07:41;;;;;;;7.07;6.37;;;9.20;99.90;;;;;;5039670;28;20195;-70
2022/11/07 05:10:14;;;;;;;6.50;5.90;;;9.20;99.90;;;;;;5039701;28;20199;-69
2022/11/07 05:12:40;;;;;;;7.30;6.00;;;9.20;99.90;;;;;;5039616;28;20195;-70
2022/11/07 05:15:06;;;;;;;8.10;6.83;;;9.10;99.90;;;;;;5039835;28;20366;-70
2022/11/07 05:17:31;;;;;;;7.97;6.60;;;9.20;99.90;;;;;;5039683;28;20198;-70
2022/11/07 05:19:57;;;;;;;6.63;6.03;;;9.20;99.90;;;;;;5039262;28;20427;-69
2022/11/07 05:25:07;;;;;;;7.23;5.97;;;9.20;99.90;;;;;;5040254;28;20205;-69
2022/11/07 05:27:33;;;;;;;6.57;5.77;;;9.20;99.90;;;;;;5040047;28;20202;-68
2022/11/07 05:29:58;;;;;;;9.17;6.13;;;9.30;99.90;;;;;;5037418;28;20198;-68
2022/11/07 05:32:24;;;;;;;7.33;5.57;;;9.30;99.90;;;;;;5038705;28;20246;-69
2022/11/07 05:34:49;;;;;;;7.17;5.17;;;9.30;99.90;;;;;;5039916;28;20210;-68
2022/11/07 05:37:15;;;;;;;6.27;5.67;;;9.30;99.90;;;;;;5039692;28;20740;-68
2022/11/07 05:39:40;;;;;;;6.37;5.77;;;9.30;99.90;;;;;;5039519;28;20215;-71
2022/11/07 05:42:06;;;;;;;5.90;5.30;;;9.30;99.90;;;;;;5038736;28;20200;-69
2022/11/07 05:44:31;;;;;;;6.70;6.03;;;9.40;99.90;;;;;;5039010;28;20205;-68
2022/11/07 05:46:57;;;;;;;5.47;4.97;;;9.40;99.90;;;;;;5039105;28;20204;-68
2022/11/07 05:49:24;;;;;;;5.83;5.23;;;9.40;99.90;;;;;;5039441;28;20196;-76
2022/11/07 05:51:49;;;;;;;7.20;5.50;;;9.40;99.90;;;;;;5039756;28;20584;-69
2022/11/07 05:54:15;;;;;;;6.80;5.47;;;9.40;99.90;;;;;;5038568;28;20222;-72
2022/11/07 05:56:42;;;;;;;5.07;4.57;;;9.40;99.90;;;;;;5034751;28;20215;-72
2022/11/07 05:59:08;;;;;;;6.00;5.40;;;9.40;99.90;;;;;;5039306;28;20221;-66
2022/11/07 06:01:34;;;;;;;7.97;4.90;;;9.40;99.90;;;;;;5039268;28;20273;-67
2022/11/07 06:04:01;;;;;;;7.07;5.60;;;9.40;99.90;;;;;;5039287;28;20198;-74
2022/11/07 06:06:27;;;;;;;5.73;5.10;;;9.50;99.90;;;;;;5038893;28;20554;-74
2022/11/07 06:08:52;;;;;;;5.57;4.97;;;9.50;99.90;;;;;;5036244;28;20203;-68
2022/11/07 06:11:18;;;;;;;4.70;4.27;;;9.50;99.90;;;;;;5038011;28;20299;-67
2022/11/07 06:13:43;;;;;;;6.47;4.73;;;9.50;99.90;;;;;;5038854;28;20236;-67
2022/11/07 06:16:09;;;;;;;7.23;5.00;;;9.50;99.90;;;;;;5038340;28;20220;-67
2022/11/07 06:18:36;;;;;;;8.07;5.37;;;9.50;99.90;;;;;;5038798;28;20212;-67
2022/11/07 06:21:01;;;;;;;7.43;5.40;;;9.50;99.90;;;;;;5038891;28;20204;-67
2022/11/07 06:23:27;;;;;;;4.47;4.07;;;9.50;99.90;;;;;;5036695;28;20211;-66
2022/11/07 06:25:52;;;;;;;6.33;4.73;;;9.50;99.90;;;;;;5038794;28;20207;-66
2022/11/07 06:28:18;;;;;;;6.57;4.37;;;9.50;99.90;;;;;;5038866;28;20214;-67
2022/11/07 06:30:44;;;;;;;4.77;4.30;;;9.50;99.90;;;;;;5038424;28;20204;-71
2022/11/07 06:33:12;;;;;;;7.77;5.10;;;9.50;99.90;;;;;;5038725;28;20198;-71
2022/11/07 06:35:38;;;;;;;4.40;4.00;;;9.60;99.90;;;;;;5038828;28;20215;-71
2022/11/07 06:38:06;;;;;;;9.23;5.20;;;9.60;99.90;;;;;;5036766;28;20234;-70
2022/11/07 06:40:32;;;;;;;4.30;3.87;;;9.60;99.90;;;;;;5038453;28;20237;-71
2022/11/07 06:43:16;;;;;;;7.87;5.40;;;9.60;99.90;;;;;;5038278;28;20257;-70
2022/11/07 06:45:42;;;;;;;5.57;4.80;;;9.60;99.90;;;;;;5034161;28;20217;-71
2022/11/07 06:48:08;;;;;;;8.80;4.80;;;9.60;99.90;;;;;;5026811;28;20215;-65
2022/11/07 06:50:34;;;;;;;4.97;4.50;;;9.60;99.90;;;;;;5028091;28;20575;-68
2022/11/07 06:53:08;;;;;;;4.23;3.83;;;9.60;99.90;;;;;;5027980;28;20230;-70
2022/11/07 06:55:35;;;;;;;7.17;4.97;;;9.60;99.90;;;;;;5024276;28;20265;-70
2022/11/07 06:58:01;;;;;;;5.63;5.10;;;9.60;99.90;;;;;;5031245;28;20227;-70
2022/11/07 07:00:28;;;;;;;4.67;4.00;;;9.60;99.90;;;;;;5026529;28;20202;-71
2022/11/07 07:02:53;;;;;;;5.17;4.67;;;9.70;99.90;;;;;;5028255;28;20207;-69
2022/11/07 07:05:19;;;;;;;4.93;4.40;;;9.70;99.90;;;;;;5026223;28;20255;-70
2022/11/07 07:07:45;;;;;;;4.00;3.57;;;9.70;99.90;;;;;;5027785;28;20205;-70
2022/11/07 07:10:10;;;;;;;4.80;3.90;;;9.70;99.90;;;;;;5027365;28;20196;-69
2022/11/07 07:12:36;;;;;;;4.70;4.30;;;9.80;99.90;;;;;;5027463;28;20214;-70
2022/11/07 07:15:01;;;;;;;4.77;4.17;;;9.80;99.90;;;;;;5027461;28;20204;-70
2022/11/07 07:17:27;;;;;;;5.23;4.43;;;9.80;99.90;;;;;;5027498;28;20227;-70
2022/11/07 07:19:52;;;;;;;6.57;3.97;;;9.90;99.90;;;;;;5026000;28;20225;-68
2022/11/07 07:22:17;;;;;;;4.07;3.73;;;9.90;99.90;;;;;;5028204;28;20199;-70
2022/11/07 07:24:43;;;;;;;3.77;3.47;;;9.90;99.90;;;;;;5028325;28;20203;-70
2022/11/07 07:27:09;;;;;;;4.03;3.63;;;9.90;99.90;;;;;;5028194;28;20202;-70
2022/11/07 07:29:34;;;;;;;4.20;3.47;;;10.00;99.90;;;;;;5028455;28;20199;-70
2022/11/07 07:31:59;;;;;;;3.63;3.30;;;10.00;99.90;;;;;;5028527;28;20196;-70
2022/11/07 07:34:25;;;;;;;3.60;3.30;;;10.00;99.90;;;;;;5025496;28;20201;-70
2022/11/07 07:36:52;;;;;;;3.57;3.27;;;10.00;99.90;;;;;;5027378;28;20253;-70
2022/11/07 07:39:18;;;;;;;3.27;2.93;;;10.10;99.90;;;;;;5029093;28;20320;-72
2022/11/07 07:41:43;;;;;;;4.23;3.23;;;10.10;99.90;;;;;;5026386;28;20314;-72
2022/11/07 07:44:09;;;;;;;3.37;3.07;;;10.10;99.90;;;;;;5026571;28;20593;-72
2022/11/07 07:46:34;;;;;;;3.60;3.30;;;10.20;99.90;;;;;;5025487;28;20662;-72
2022/11/07 07:49:00;;;;;;;3.57;2.80;;;10.20;99.90;;;;;;5027682;28;20216;-68
2022/11/07 07:51:25;;;;;;;3.27;2.97;;;10.30;99.90;;;;;;5027851;28;20717;-68
2022/11/07 07:53:52;;;;;;;3.60;2.80;;;10.30;99.90;;;;;;5027828;28;20779;-68
2022/11/07 07:56:18;;;;;;;4.23;3.20;;;10.30;99.90;;;;;;5027049;28;20277;-68
2022/11/07 07:58:45;;;;;;;4.67;3.30;;;10.20;99.90;;;;;;5027253;28;20231;-66
2022/11/07 08:01:11;;;;;;;3.73;2.80;;;10.20;99.90;;;;;;5024713;28;20245;-71
2022/11/07 08:03:37;;;;;;;3.60;3.20;;;10.10;99.90;;;;;;5029407;28;20203;-69
2022/11/07 08:06:04;;;;;;;4.83;2.93;;;10.20;99.90;;;;;;5033328;28;20203;-69
2022/11/07 08:08:30;;;;;;;2.87;2.67;;;10.20;99.90;;;;;;5028699;28;20281;-69
2022/11/07 08:11:04;;;;;;;4.40;2.77;;;10.20;99.90;;;;;;5023057;28;20219;-68
2022/11/07 08:13:30;;;;;;;3.23;2.93;;;10.20;99.90;;;;;;5022808;28;20290;-69
2022/11/07 08:15:56;;;;;;;5.80;3.07;;;10.30;99.90;;;;;;5027002;28;20199;-69
2022/11/07 08:18:22;;;;;;;3.80;2.73;;;10.30;99.90;;;;;;5027358;28;20226;-69
2022/11/07 08:20:50;;;;;;;3.97;3.33;;;10.30;99.90;;;;;;5027085;28;20195;-70
2022/11/07 08:23:16;;;;;;;4.67;3.07;;;10.40;99.90;;;;;;5026534;28;20202;-69
2022/11/07 08:25:47;;;;;;;2.40;2.20;;;10.40;99.90;;;;;;5026461;28;20191;-69
2022/11/07 08:28:13;;;;;;;3.10;2.80;;;10.40;99.90;;;;;;5028398;28;20705;-68
2022/11/07 08:30:38;;;;;;;2.97;2.67;;;10.50;99.90;;;;;;5036901;28;20292;-68
2022/11/07 08:33:03;;;;;;;5.43;2.83;;;10.50;99.90;;;;;;5036005;28;20561;-68
2022/11/07 08:35:30;;;;;;;3.13;2.90;;;10.50;99.90;;;;;;5035045;28;20199;-70
2022/11/07 08:37:56;;;;;;;3.47;2.77;;;10.60;99.90;;;;;;5036495;28;20391;-70
2022/11/07 08:40:21;;;;;;;2.67;2.37;;;10.70;99.90;;;;;;5036939;28;20199;-68
2022/11/07 08:42:47;;;;;;;5.20;2.60;;;10.80;99.90;;;;;;5036503;28;20251;-67
2022/11/07 08:45:12;;;;;;;3.40;2.50;;;11.00;99.90;;;;;;5037523;28;20246;-63
2022/11/07 08:47:38;;;;;;;2.23;2.13;;;11.10;99.90;;;;;;5035754;28;20666;-63
2022/11/07 08:50:04;;;;;;;3.40;2.47;;;11.20;99.90;;;;;;5034913;28;20246;-63
2022/11/07 08:52:29;;;;;;;2.00;1.90;;;11.30;99.90;;;;;;5036456;28;20188;-65
2022/11/07 08:54:55;;;;;;;2.40;1.63;;;11.30;99.90;;;;;;5036264;28;20270;-64
2022/11/07 08:57:21;;;;;;;2.23;2.03;;;11.40;99.90;;;;;;5036352;28;20203;-65
2022/11/07 08:59:46;;;;;;;6.07;2.00;;;11.50;99.90;;;;;;5035935;28;20223;-63
2022/11/07 09:02:12;;;;;;;4.27;2.13;;;11.50;99.90;;;;;;5036007;28;20296;-65
2022/11/07 09:04:38;;;;;;;1.90;1.80;;;11.50;99.90;;;;;;5040088;28;20196;-65
2022/11/07 09:07:03;;;;;;;3.33;2.53;;;11.60;99.90;;;;;;5033043;28;20206;-65
2022/11/07 09:09:29;;;;;;;8.63;2.73;;;11.70;99.90;;;;;;5035914;28;21145;-66
2022/11/07 09:11:54;;;;;;;2.40;2.20;;;11.70;99.90;;;;;;5036411;28;20273;-64
2022/11/07 09:14:20;;;;;;;4.73;1.90;;;11.80;99.90;;;;;;5034917;28;20655;-64
2022/11/07 09:16:45;;;;;;;2.83;2.00;;;11.80;99.90;;;;;;5028285;28;20561;-64
2022/11/07 09:19:11;;;;;;;4.60;1.93;;;11.90;99.90;;;;;;5022492;28;20687;-64
2022/11/07 09:21:36;;;;;;;2.03;1.60;;;11.90;99.90;;;;;;5035975;28;20539;-64
2022/11/07 09:24:02;;;;;;;3.20;2.00;;;11.90;99.90;;;;;;5035406;28;20211;-64
2022/11/07 09:26:28;;;;;;;3.53;1.70;;;11.90;99.90;;;;;;5029144;28;20200;-59
2022/11/07 09:28:53;;;;;;;2.07;1.93;;;12.00;99.90;;;;;;5035350;28;20352;-59
2022/11/07 09:31:19;;;;;;;2.80;2.10;;;12.20;99.90;;;;;;5032112;28;20662;-58
2022/11/07 09:33:45;;;;;;;4.83;2.30;;;12.50;99.90;;;;;;5024344;28;20209;-58
2022/11/07 09:36:11;;;;;;;2.50;1.97;;;12.60;99.90;;;;;;5029067;28;20202;-58
2022/11/07 09:38:37;;;;;;;4.60;2.07;;;12.80;99.90;;;;;;5039264;28;20240;-78
2022/11/07 09:41:18;;;;;;;2.87;1.63;;;12.90;99.90;;;;;;5030657;28;20677;-58
2022/11/07 09:44:11;;;;;;;5.90;2.37;;;13.00;99.90;;;;;;5030258;28;20195;-59
2022/11/07 09:47:10;;;;;;;5.50;2.00;;;13.00;99.90;;;;;;5028808;28;20293;-58
2022/11/07 09:49:38;;;;;;;2.60;1.70;;;13.10;99.90;;;;;;5030934;28;20202;-58
2022/11/07 09:52:16;;;;;;;2.60;1.60;;;13.00;99.90;;;;;;5026893;28;20590;-59
2022/11/07 09:54:47;;;;;;;2.27;1.83;;;12.90;99.90;;;;;;5031904;28;20563;-57
2022/11/07 09:57:16;;;;;;;2.80;1.40;;;12.90;99.90;;;;;;5026520;28;20344;-57
2022/11/07 09:59:54;;;;;;;3.73;1.70;;;13.00;99.90;;;;;;5038313;28;20589;-57
2022/11/07 10:02:24;;;;;;;4.13;1.80;;;13.00;99.90;;;;;;5035455;28;20970;-57
2022/11/07 10:04:57;;;;;;;4.43;1.93;;;13.00;99.90;;;;;;5038437;28;20193;-57
2022/11/07 10:07:40;;;;;;;1.90;1.63;;;13.00;99.90;;;;;;5038234;28;20631;-57
2022/11/07 10:10:20;;;;;;;4.87;1.67;;;13.10;99.90;;;;;;5032177;28;20201;-57
2022/11/07 10:12:54;;;;;;;1.63;1.50;;;13.10;99.90;;;;;;5024801;28;20202;-58
2022/11/07 10:15:26;;;;;;;4.57;1.90;;;13.20;99.90;;;;;;5027105;28;20194;-59
2022/11/07 10:18:14;;;;;;;3.23;1.70;;;13.30;99.90;;;;;;5027374;28;20195;-57
2022/11/07 10:21:04;;;;;;;4.73;2.03;;;13.30;99.90;;;;;;5030326;28;20268;-58
2022/11/07 10:23:47;;;;;;;4.67;1.50;;;13.40;99.90;;;;;;5028330;28;20207;-58
2022/11/07 10:26:18;;;;;;;4.03;1.57;;;13.50;99.90;;;;;;5022037;28;20202;-58
2022/11/07 10:28:53;;;;;;;2.57;1.67;;;13.60;99.90;;;;;;5028494;28;20207;-57
2022/11/07 10:31:18;;;;;;;4.00;1.70;;;13.60;99.90;;;;;;5028055;28;20206;-57
2022/11/07 10:33:52;;;;;;;4.67;1.60;;;13.70;99.90;;;;;;5028110;28;20195;-59
2022/11/07 10:36:23;;;;;;;2.63;1.40;;;13.80;99.90;;;;;;5028099;28;20251;-73
2022/11/07 10:38:49;;;;;;;1.53;1.23;;;13.90;99.90;;;;;;5032384;28;20247;-58
2022/11/07 10:41:19;;;;;;;2.93;1.77;;;14.00;99.90;;;;;;5025307;28;20233;-58
2022/11/07 10:43:48;;;;;;;3.27;1.90;;;14.10;99.90;;;;;;5028889;28;20190;-57
2022/11/07 10:46:40;;;;;;;2.17;1.93;;;14.20;99.90;;;;;;5028046;28;20198;-59
2022/11/07 10:49:28;;;;;;;1.90;1.30;;;14.30;99.90;;;;;;5033550;28;20252;-58
2022/11/07 10:52:04;;;;;;;3.20;1.60;;;14.30;99.90;;;;;;5034359;28;20203;-58
2022/11/07 10:54:30;;;;;;;1.90;1.80;;;14.30;99.90;;;;;;5022625;28;20233;-58
2022/11/07 10:57:08;;;;;;;2.53;1.63;;;14.50;99.90;;;;;;5026994;28;20207;-58
2022/11/07 10:59:36;;;;;;;3.37;1.83;;;14.60;99.90;;;;;;5027925;28;20214;-58
2022/11/07 11:02:08;;;;;;;2.13;1.93;;;14.70;99.90;;;;;;5023700;28;20709;-58
2022/11/07 11:04:37;;;;;;;3.13;1.63;;;14.70;99.90;;;;;;5028329;28;20209;-59
2022/11/07 11:07:10;;;;;;;2.53;1.53;;;14.80;99.90;;;;;;5027754;28;20203;-60
2022/11/07 11:09:36;;;;;;;3.27;2.40;;;14.90;99.90;;;;;;5026234;28;20202;-60
2022/11/07 11:12:10;;;;;;;3.70;1.50;;;14.90;99.90;;;;;;5027360;28;20217;-60
2022/11/07 11:14:35;;;;;;;2.53;1.50;;;15.00;99.90;;;;;;5031062;28;20197;-58
2022/11/07 11:17:02;;;;;;;3.53;1.70;;;15.20;99.90;;;;;;5022751;28;20380;-60
2022/11/07 11:19:33;;;;;;;8.17;1.97;;;15.30;99.90;;;;;;5022755;28;20686;-59
2022/11/07 11:21:59;;;;;;;2.50;1.53;;;15.30;99.90;;;;;;5027452;28;20200;-59
2022/11/07 11:24:36;;;;;;;4.60;1.57;;;15.30;99.90;;;;;;5027949;28;20194;-59
2022/11/07 11:27:17;;;;;;;2.50;1.60;;;15.30;99.90;;;;;;5026933;28;20703;-60
2022/11/07 11:30:00;;;;;;;3.00;1.83;;;15.40;99.90;;;;;;5023810;28;20209;-58
2022/11/07 11:32:44;;;;;;;2.43;1.70;;;15.40;99.90;;;;;;5026601;28;20915;-58
2022/11/07 11:35:29;;;;;;;2.30;1.60;;;15.30;99.90;;;;;;5027685;28;20661;-56
2022/11/07 11:38:01;;;;;;;3.57;1.37;;;15.20;99.90;;;;;;5036208;28;20198;-57
2022/11/07 11:40:31;;;;;;;2.07;1.37;;;15.30;99.90;;;;;;5026319;28;20199;-58
2022/11/07 11:43:04;;;;;;;5.60;1.90;;;15.40;99.90;;;;;;5037667;28;20858;-57
2022/11/07 11:45:34;;;;;;;1.83;1.33;;;15.50;99.90;;;;;;5037250;28;20392;-56
2022/11/07 11:48:26;;;;;;;1.70;1.30;;;15.60;99.90;;;;;;5037495;28;20275;-59
2022/11/07 11:51:11;;;;;;;2.50;1.17;;;15.70;99.90;;;;;;5036140;28;20199;-58
2022/11/07 11:53:37;;;;;;;7.20;1.90;;;15.90;99.90;;;;;;5035706;28;20288;-60
2022/11/07 11:56:05;;;;;;;3.80;1.80;;;15.90;99.90;;;;;;5022357;28;20696;-59
2022/11/07 11:58:55;;;;;;;1.43;1.33;;;15.90;99.90;;;;;;5026336;28;20218;-57
2022/11/07 12:01:29;;;;;;;1.27;1.17;;;16.10;99.90;;;;;;5025892;28;20196;-59
2022/11/07 12:04:32;;;;;;;1.33;1.23;;;16.00;99.90;;;;;;5024079;28;20704;-56
2022/11/07 12:07:40;;;;;;;5.27;1.77;;;16.00;99.90;;;;;;5026151;28;20198;-57
2022/11/07 12:10:17;;;;;;;3.33;1.50;;;16.30;99.90;;;;;;5026379;28;20195;-58
2022/11/07 12:12:57;;;;;;;4.27;1.87;;;16.70;99.90;;;;;;5026023;28;20824;-57
2022/11/07 12:15:28;;;;;;;1.50;1.20;;;16.70;99.90;;;;;;5032114;28;20198;-57
2022/11/07 12:18:08;;;;;;;2.73;1.67;;;16.50;99.90;;;;;;5034532;28;21005;-59
2022/11/07 12:20:43;;;;;;;4.07;1.90;;;16.50;99.90;;;;;;5032043;28;20559;-59
2022/11/07 12:23:21;;;;;;;1.53;1.43;;;16.40;99.90;;;;;;5036867;28;20197;-59
2022/11/07 12:26:07;;;;;;;2.73;1.70;;;16.40;99.90;;;;;;5036186;28;20206;-59
2022/11/07 12:28:56;;;;;;;2.47;1.47;;;16.50;99.90;;;;;;5034134;28;20206;-57
2022/11/07 12:31:54;;;;;;;2.37;1.37;;;16.70;99.90;;;;;;5036443;28;20202;-62
2022/11/07 12:34:35;;;;;;;1.20;0.93;;;17.20;99.90;;;;;;5035600;28;20216;-67
2022/11/07 12:37:27;;;;;;;3.60;1.70;;;17.40;99.90;;;;;;5024107;28;20728;-70
2022/11/07 12:40:03;;;;;;;4.57;1.20;;;17.50;99.90;;;;;;5021345;28;20844;-75
2022/11/07 12:43:04;;;;;;;4.83;2.47;;;17.60;99.90;;;;;;5023691;28;20198;-75
2022/11/07 12:45:45;;;;;;;2.47;1.40;;;17.40;99.90;;;;;;5021388;28;20221;-73
2022/11/07 12:48:23;;;;;;;1.23;1.13;;;17.70;99.90;;;;;;5027668;28;20558;-74
2022/11/07 12:51:14;;;;;;;2.23;1.30;;;17.50;99.90;;;;;;5023304;28;20203;-67
2022/11/07 12:54:15;;;;;;;2.20;1.97;;;16.90;99.90;;;;;;5022162;28;20567;-70
2022/11/07 12:56:44;;;;;;;1.80;1.50;;;16.40;99.90;;;;;;5029267;28;20206;-62
2022/11/07 12:59:16;;;;;;;3.87;1.83;;;16.00;99.90;;;;;;5026149;28;20583;-61
2022/11/07 13:02:05;;;;;;;5.23;1.60;;;15.90;99.90;;;;;;5023207;28;20199;-61
2022/11/07 13:04:41;;;;;;;11.73;1.67;;;15.80;99.90;;;;;;5028341;28;20256;-59
2022/11/07 13:07:21;;;;;;;4.93;2.03;;;15.80;99.90;;;;;;5025437;28;20596;-59
2022/11/07 13:10:11;;;;;;;3.73;1.70;;;15.60;99.90;;;;;;5024582;28;20194;-60
2022/11/07 13:12:56;;;;;;;6.27;1.60;;;15.60;99.90;;;;;;5025606;28;20264;-59
2022/11/07 13:15:22;;;;;;;2.17;1.50;;;15.40;99.90;;;;;;5024542;28;20295;-60